Detalii statie REFDANCOM [00001D06]

Toti senzorii

Date Temperatura solului [C]Precipitatii [mm]Voltaj baterie [mV]Leaf Wetness [Min]HC Air temperature [C]HC Relative humidity [%]Punctul de roua [C]
medieminmaxsumaultimatimpmedieminmaxmediemediemin
2018-10-13 16:00:00 0 7226 22.36 21.85 22.83 0 0 0
2018-10-13 17:00:00 0 7176 20.27 18.43 21.65 0 0 0
2018-10-13 18:00:00 0 6698 15.95 13.38 17.95 0 0 0
2018-10-13 19:00:00 0 6678 12.39 11.59 13.26 0 0 0
2018-10-13 20:00:00 0 6668 10.29 9.48 11.62 0 0 0
2018-10-13 21:00:00 0 6660 9.09 8.69 9.39 0 0 0
2018-10-13 22:00:00 0 6660 8.48 8.04 8.97 0 0 0
2018-10-13 23:00:00 0 6660 7.37 6.5 8.21 0 0 0
2018-10-14 00:00:00 0 6650 7.72 6.05 8.55 0 0 0
2018-10-14 01:00:00 0 6650 7.44 6.62 8.12 0 0 0
2018-10-14 02:00:00 0 6650 6.21 5.48 7.55 0 0 0
2018-10-14 03:00:00 0 6650 4.92 4.39 5.33 0 0 0
2018-10-14 04:00:00 0 6640 5.88 5.38 6.29 0 0 0
2018-10-14 05:00:00 0 6650 4.82 4.52 5.51 0 0 0
2018-10-14 06:00:00 0 6640 4.22 3.19 4.83 0 0 0
2018-10-14 07:00:00 0 6650 3.23 2.33 4.24 0 0 0
2018-10-14 08:00:00 0 6708 4.27 3 5.69 0 0 0
2018-10-14 09:00:00 0 6776 7.61 6.03 9.6 0 0 0
2018-10-14 10:00:00 0 7226 13.06 9.99 15.36 0 0 0
2018-10-14 11:00:00 0 7226 16.48 14.53 18.24 0 0 0
2018-10-14 12:00:00 0 7216 18.56 17.7 19.48 0 0 0
2018-10-14 13:00:00 0 7216 20.28 19.68 20.89 0 0 0
2018-10-14 14:00:00 0 7216 20.85 20.27 21.21 0 0 0
2018-10-14 15:00:00 0 7226 20.86 20.37 21.22 0 0 0
2018-10-14 16:00:00 0 7226 20.48 19.78 21.06 0 0 0
2018-10-14 17:00:00 0 7176 18.51 17.18 19.84 0 0 0
2018-10-14 18:00:00 0 6688 14.98 13.29 16.79 0 0 0
2018-10-14 19:00:00 0 6688 12.28 11.91 12.97 0 0 0
2018-10-14 20:00:00 0 6668 11.04 9.8 11.96 0 0 0
2018-10-14 21:00:00 0 6660 9.04 8.47 9.8 0 0 0
2018-10-14 22:00:00 0 6660 9.14 8.65 9.55 0 0 0
2018-10-14 23:00:00 0 6660 7.91 7.04 9.2 0 0 0
2018-10-15 00:00:00 0 6650 6.97 6.77 7.24 0 0 0
2018-10-15 01:00:00 0 6650 7.26 6.74 7.47 0 0 0
2018-10-15 02:00:00 0 6650 6.29 5.59 6.84 0 0 0
2018-10-15 03:00:00 0 6640 5.88 5.28 6.76 0 0 0
2018-10-15 04:00:00 0 6640 6.45 6.14 6.83 0 0 0
2018-10-15 05:00:00 0 6640 6 5.26 6.57 0 0 0
2018-10-15 06:00:00 0 6620 3.96 3.01 4.98 0 0 0
2018-10-15 07:00:00 0 6640 4.05 3.55 4.43 0 0 0
2018-10-15 08:00:00 0 6668 4.82 4.12 5.92 0 0 0
2018-10-15 09:00:00 0 6748 7.25 6.14 8.47 0 0 0
2018-10-15 10:00:00 0 7236 12.09 8.81 14.48 0 0 0
2018-10-15 11:00:00 0 7226 15.96 14.23 17.23 0 0 0
2018-10-15 12:00:00 0 7226 18.7 17.7 19.83 0 0 0
2018-10-15 13:00:00 0 7216 20.63 19.89 21.1 0 0 0
2018-10-15 14:00:00 0 7216 21.52 20.87 22 0 0 0
2018-10-15 15:00:00 0 7216 21.85 21.64 22.01 0 0 0